Time;durP1;ratioP1;P1;durP2;ratioP2;P2;SDS_P1;SDS_P2;PMS_P1;PMS_P2;Temp;Humidity;BMP_temperature;BMP_pressure;BME280_temperature;BME280_humidity;BME280_pressure;Samples;Min_cycle;Max_cycle;Signal;HPM_P1;HPM_P2
2024/01/06 00:00:25;;;;;;;0.77;0.77;;;;;;;-12.14;76.53;100624.13;5105681;28;20119;-63
2024/01/06 00:02:50;;;;;;;0.73;0.73;;;;;;;-12.09;76.54;100635.41;5107119;28;20103;-62
2024/01/06 00:05:16;;;;;;;0.80;0.80;;;;;;;-12.11;76.54;100637.78;5107089;28;20100;-61
2024/01/06 00:07:41;;;;;;;0.80;0.80;;;;;;;-12.15;76.51;100632.34;5106946;28;20055;-62
2024/01/06 00:10:07;;;;;;;1.00;1.00;;;;;;;-12.13;76.59;100634.28;5105369;28;20020;-63
2024/01/06 00:12:32;;;;;;;0.80;0.80;;;;;;;-12.10;76.50;100634.53;5106500;28;20024;-62
2024/01/06 00:14:57;;;;;;;2.35;2.25;;;;;;;-12.14;76.57;100641.66;5105251;28;20031;-62
2024/01/06 00:17:23;;;;;;;0.98;0.98;;;;;;;-12.11;76.57;100654.44;5106844;28;20483;-62
2024/01/06 00:19:51;;;;;;;0.75;0.75;;;;;;;-12.10;76.55;100656.19;5106653;28;20020;-63
2024/01/06 00:22:18;;;;;;;0.90;0.90;;;;;;;-12.12;76.46;100655.19;5106773;28;20020;-62
2024/01/06 00:24:43;;;;;;;0.70;0.70;;;;;;;-12.16;76.52;100646.53;5106703;28;20028;-64
2024/01/06 00:27:09;;;;;;;0.65;0.65;;;;;;;-12.10;76.52;100658.69;5106631;28;20054;-63
2024/01/06 00:29:34;;;;;;;0.60;0.60;;;;;;;-12.12;76.66;100657.69;5106272;28;20027;-62
2024/01/06 00:31:59;;;;;;;0.80;0.80;;;;;;;-12.17;76.57;100656.41;5106496;28;20039;-61
2024/01/06 00:34:24;;;;;;;2.35;2.25;;;;;;;-12.12;76.52;100666.06;5104920;28;20024;-61
2024/01/06 00:36:50;;;;;;;0.73;0.73;;;;;;;-12.23;76.46;100665.13;5106324;28;20032;-61
2024/01/06 00:39:15;;;;;;;0.70;0.70;;;;;;;-12.29;76.45;100658.69;5106179;28;20139;-63
2024/01/06 00:41:40;;;;;;;0.70;0.70;;;;;;;-12.24;76.32;100668.38;5105999;28;20054;-63
2024/01/06 00:44:06;;;;;;;0.70;0.70;;;;;;;-12.15;76.49;100687.44;5106699;28;20020;-63
2024/01/06 00:46:31;;;;;;;0.80;0.80;;;;;;;-12.18;76.50;100687.16;5106442;28;20038;-62
2024/01/06 00:48:56;;;;;;;0.80;0.80;;;;;;;-12.17;76.48;100688.94;5106128;28;20162;-63
2024/01/06 00:51:22;;;;;;;0.80;0.80;;;;;;;-12.21;76.60;100681.16;5106183;28;20059;-62
2024/01/06 00:53:47;;;;;;;0.80;0.80;;;;;;;-12.22;76.37;100686.91;5106316;28;20028;-61
2024/01/06 00:56:13;;;;;;;0.80;0.80;;;;;;;-12.27;76.70;100698.16;5106053;28;20028;-62
2024/01/06 00:58:38;;;;;;;0.70;0.70;;;;;;;-12.24;76.59;100692.53;5105751;28;20036;-61
2024/01/06 01:01:03;;;;;;;0.75;0.75;;;;;;;-12.28;76.53;100696.38;5105910;28;20110;-61
2024/01/06 01:03:29;;;;;;;1.00;1.00;;;;;;;-12.27;76.69;100704.78;5105899;28;20024;-62
2024/01/06 01:05:54;;;;;;;0.70;0.70;;;;;;;-12.29;76.58;100709.66;5106002;28;20036;-63
2024/01/06 01:08:19;;;;;;;1.08;1.05;;;;;;;-12.34;76.76;100714.25;5105876;28;20052;-61
2024/01/06 01:10:45;;;;;;;0.75;0.75;;;;;;;-12.33;76.57;100708.47;5105608;28;20024;-62
2024/01/06 01:13:10;;;;;;;4.47;4.10;;;;;;;-12.33;76.54;100712.63;5105829;28;20111;-62
2024/01/06 01:15:36;;;;;;;0.80;0.80;;;;;;;-12.40;76.72;100702.81;5105682;28;20028;-62
2024/01/06 01:18:01;;;;;;;0.80;0.80;;;;;;;-12.43;76.67;100710.94;5105818;28;20031;-62
2024/01/06 01:20:26;;;;;;;0.80;0.80;;;;;;;-12.44;76.67;100709.16;5105545;28;20027;-63
2024/01/06 01:22:52;;;;;;;0.70;0.70;;;;;;;-12.47;76.57;100707.25;5105627;28;20059;-62
2024/01/06 01:25:17;;;;;;;0.80;0.80;;;;;;;-12.52;76.52;100702.59;5105690;28;20023;-62
2024/01/06 01:27:42;;;;;;;0.60;0.60;;;;;;;-12.53;76.65;100696.72;5105520;28;20081;-62
2024/01/06 01:30:08;;;;;;;0.80;0.80;;;;;;;-12.53;76.81;100703.34;5105379;28;20024;-62
2024/01/06 01:32:33;;;;;;;0.80;0.80;;;;;;;-12.50;76.71;100714.50;5105800;28;20027;-62
2024/01/06 01:34:59;;;;;;;1.33;1.33;;;;;;;-12.57;76.49;100699.69;5105414;28;20394;-62
2024/01/06 01:37:24;;;;;;;0.63;0.63;;;;;;;-12.53;76.45;100713.34;5105464;28;20032;-61
2024/01/06 01:39:49;;;;;;;0.80;0.80;;;;;;;-12.57;76.76;100718.06;5105084;28;20047;-62
2024/01/06 01:42:15;;;;;;;0.80;0.80;;;;;;;-12.58;76.65;100717.94;5103644;28;20040;-61
2024/01/06 01:44:40;;;;;;;0.70;0.70;;;;;;;-12.59;76.60;100721.19;5104848;28;20042;-63
2024/01/06 01:47:06;;;;;;;0.80;0.80;;;;;;;-12.65;76.59;100728.13;5104598;28;20036;-64
2024/01/06 01:49:32;;;;;;;0.70;0.70;;;;;;;-12.62;76.67;100733.41;5103677;28;20054;-62
2024/01/06 01:51:58;;;;;;;0.70;0.70;;;;;;;-12.65;76.60;100734.00;5104891;28;20020;-61
2024/01/06 01:54:23;;;;;;;1.20;1.10;;;;;;;-12.66;76.63;100736.38;5104750;28;20020;-62
2024/01/06 01:56:49;;;;;;;0.70;0.70;;;;;;;-12.68;76.67;100731.22;5105039;28;20443;-63
2024/01/06 01:59:18;;;;;;;0.80;0.80;;;;;;;-12.67;76.54;100748.00;5104991;28;20016;-63
2024/01/06 02:01:44;;;;;;;0.80;0.80;;;;;;;-12.68;76.80;100748.72;5105069;28;20028;-63
2024/01/06 02:04:09;;;;;;;0.70;0.70;;;;;;;-12.71;76.70;100746.84;5105223;28;20073;-61
2024/01/06 02:06:35;;;;;;;0.90;0.90;;;;;;;-12.72;76.61;100746.72;5105069;28;20032;-62
2024/01/06 02:09:00;;;;;;;1.00;1.00;;;;;;;-12.74;76.60;100744.06;5105048;28;20035;-61
2024/01/06 02:11:26;;;;;;;7.25;5.40;;;;;;;-12.72;76.64;100754.22;5104812;28;20039;-62
2024/01/06 02:13:51;;;;;;;0.70;0.70;;;;;;;-12.74;76.60;100746.56;5105151;28;20038;-62
2024/01/06 02:16:16;;;;;;;0.80;0.80;;;;;;;-12.70;76.43;100757.75;5105029;28;20035;-63
2024/01/06 02:18:42;;;;;;;0.70;0.70;;;;;;;-12.76;76.50;100753.03;5104962;28;20024;-62
2024/01/06 02:21:07;;;;;;;0.80;0.80;;;;;;;-12.73;76.49;100754.97;5103799;28;20056;-61
2024/01/06 02:23:35;;;;;;;0.82;0.82;;;;;;;-12.70;76.67;100757.75;5105153;28;20028;-62
2024/01/06 02:26:01;;;;;;;0.80;0.80;;;;;;;-12.76;76.68;100748.03;5104834;28;20498;-62
2024/01/06 02:28:26;;;;;;;0.80;0.80;;;;;;;-12.67;76.48;100762.13;5104454;28;20024;-62
2024/01/06 02:30:51;;;;;;;0.70;0.70;;;;;;;-12.68;76.51;100765.38;5104781;28;20032;-62
2024/01/06 02:33:19;;;;;;;0.80;0.80;;;;;;;-12.66;76.48;100767.28;5103392;28;20036;-62
2024/01/06 02:35:45;;;;;;;2.47;2.28;;;;;;;-12.65;76.57;100765.66;5104892;28;20028;-61
2024/01/06 02:38:10;;;;;;;0.80;0.80;;;;;;;-12.63;76.69;100770.03;5104797;28;20036;-63
2024/01/06 02:40:36;;;;;;;0.70;0.70;;;;;;;-12.63;76.57;100772.56;5104541;28;20131;-62
2024/01/06 02:43:01;;;;;;;0.80;0.80;;;;;;;-12.64;76.57;100769.91;5104659;28;20119;-61
2024/01/06 02:45:26;;;;;;;0.80;0.80;;;;;;;-12.70;76.64;100756.09;5104634;28;20054;-61
2024/01/06 02:47:52;;;;;;;0.80;0.80;;;;;;;-12.68;76.49;100761.25;5104725;28;20039;-63
2024/01/06 02:50:17;;;;;;;1.20;1.20;;;;;;;-12.62;76.60;100768.44;5104489;28;20063;-62
2024/01/06 02:52:45;;;;;;;0.80;0.80;;;;;;;-12.64;76.70;100764.91;5104808;28;20036;-61
2024/01/06 02:55:10;;;;;;;0.70;0.70;;;;;;;-12.64;76.68;100762.41;5104530;28;20032;-62
2024/01/06 02:57:37;;;;;;;0.80;0.80;;;;;;;-12.59;76.50;100763.72;5104628;28;20039;-61
2024/01/06 03:00:03;;;;;;;0.70;0.70;;;;;;;-12.61;76.73;100761.06;5104452;28;20024;-61
2024/01/06 03:02:28;;;;;;;0.70;0.70;;;;;;;-12.60;76.73;100771.97;5103358;28;20031;-64
2024/01/06 03:04:54;;;;;;;0.80;0.80;;;;;;;-12.59;76.37;100769.59;5104439;28;20031;-62
2024/01/06 03:07:20;;;;;;;0.63;0.63;;;;;;;-12.64;76.73;100770.81;5107929;28;20506;-62
2024/01/06 03:09:45;;;;;;;1.15;1.10;;;;;;;-12.62;76.62;100768.44;5107982;28;20051;-63
2024/01/06 03:12:11;;;;;;;0.70;0.70;;;;;;;-12.59;76.52;100779.59;5107782;28;20091;-62
2024/01/06 03:14:36;;;;;;;0.85;0.85;;;;;;;-12.59;76.58;100778.72;5107930;28;20460;-61
2024/01/06 03:17:02;;;;;;;0.70;0.70;;;;;;;-12.60;76.60;100776.97;5107965;28;20038;-61
2024/01/06 03:19:28;;;;;;;0.65;0.65;;;;;;;-12.67;76.46;100774.63;5106531;28;20483;-61
2024/01/06 03:21:54;;;;;;;0.88;0.88;;;;;;;-12.63;76.70;100785.06;5107615;28;20032;-62
2024/01/06 03:24:21;;;;;;;0.70;0.70;;;;;;;-12.60;76.66;100794.47;5106107;28;20032;-62
2024/01/06 03:26:46;;;;;;;0.70;0.70;;;;;;;-12.61;76.62;100798.59;5107440;28;20028;-61
2024/01/06 03:29:11;;;;;;;0.70;0.70;;;;;;;-12.67;76.48;100789.63;5107755;28;20097;-61
2024/01/06 03:31:37;;;;;;;0.70;0.70;;;;;;;-12.65;76.50;100798.19;5108099;28;20035;-62
2024/01/06 03:34:02;;;;;;;0.80;0.80;;;;;;;-12.65;76.54;100798.19;5107541;28;20458;-62
2024/01/06 03:36:27;;;;;;;0.70;0.70;;;;;;;-12.66;76.68;100791.38;5107621;28;20055;-63
2024/01/06 03:38:53;;;;;;;0.80;0.80;;;;;;;-12.65;76.65;100799.03;5105978;28;20047;-62
2024/01/06 03:41:18;;;;;;;0.77;0.77;;;;;;;-12.65;76.66;100803.19;5107279;28;20081;-60
2024/01/06 03:43:43;;;;;;;2.15;2.05;;;;;;;-12.68;76.55;100797.91;5107330;28;20418;-61
2024/01/06 03:46:09;;;;;;;0.70;0.70;;;;;;;-12.77;76.58;100795.41;5105603;28;20024;-63
2024/01/06 03:48:34;;;;;;;0.80;0.80;;;;;;;-12.70;76.55;100816.13;5106971;28;20024;-61
2024/01/06 03:51:00;;;;;;;0.80;0.80;;;;;;;-12.73;76.50;100808.34;5106784;28;20031;-61
2024/01/06 03:53:25;;;;;;;0.70;0.70;;;;;;;-12.85;76.57;100798.13;5106970;28;20054;-62
2024/01/06 03:55:51;;;;;;;1.50;1.40;;;;;;;-12.71;76.68;100821.00;5107128;28;20035;-62
2024/01/06 03:58:17;;;;;;;0.80;0.80;;;;;;;-12.71;76.53;100816.88;5106813;28;20020;-62
2024/01/06 04:00:42;;;;;;;0.70;0.70;;;;;;;-12.77;76.59;100806.31;5106752;28;20024;-61
2024/01/06 04:03:08;;;;;;;0.95;0.95;;;;;;;-12.79;76.67;100805.28;5107017;28;20023;-63
2024/01/06 04:05:34;;;;;;;0.80;0.80;;;;;;;-12.73;76.71;100815.84;5105515;28;20514;-61
2024/01/06 04:07:59;;;;;;;0.70;0.70;;;;;;;-12.76;76.82;100808.06;5106453;28;20031;-61
2024/01/06 04:10:24;;;;;;;0.80;0.80;;;;;;;-12.68;76.80;100817.91;5105533;28;20035;-62
2024/01/06 04:12:50;;;;;;;0.80;0.80;;;;;;;-12.71;76.85;100818.50;5106785;28;20475;-61
2024/01/06 04:15:16;;;;;;;4.72;3.25;;;;;;;-12.64;76.79;100827.44;5106246;28;20047;-62
2024/01/06 04:17:41;;;;;;;0.60;0.60;;;;;;;-12.63;76.66;100827.59;5106821;28;20028;-62
2024/01/06 04:20:07;;;;;;;0.70;0.70;;;;;;;-12.65;76.79;100823.19;5106710;28;20024;-61
2024/01/06 04:22:33;;;;;;;0.90;0.90;;;;;;;-12.67;76.89;100819.66;5106813;28;20121;-62
2024/01/06 04:24:58;;;;;;;0.80;0.80;;;;;;;-12.68;76.87;100821.28;5106611;28;20028;-60
2024/01/06 04:27:24;;;;;;;0.70;0.70;;;;;;;-12.67;76.76;100817.16;5105124;28;20024;-62
2024/01/06 04:29:52;;;;;;;0.60;0.60;;;;;;;-12.69;76.92;100819.53;5106479;28;20024;-61
2024/01/06 04:32:18;;;;;;;0.80;0.80;;;;;;;-12.59;76.88;100838.75;5106505;28;20054;-62
2024/01/06 04:34:43;;;;;;;0.82;0.82;;;;;;;-12.61;76.89;100841.13;5106433;28;20031;-61
2024/01/06 04:37:09;;;;;;;6.53;2.10;;;;;;;-12.65;76.65;100834.06;5106592;28;20024;-61
2024/01/06 04:39:34;;;;;;;0.70;0.70;;;;;;;-12.68;76.73;100823.78;5104792;28;20051;-62
2024/01/06 04:41:59;;;;;;;0.77;0.77;;;;;;;-12.62;76.77;100835.97;5106203;28;20032;-61
2024/01/06 04:44:25;;;;;;;0.70;0.70;;;;;;;-12.65;76.75;100833.19;5106547;28;20024;-61
2024/01/06 04:46:50;;;;;;;0.70;0.70;;;;;;;-12.64;76.90;100835.84;5106131;28;20410;-62
2024/01/06 04:49:15;;;;;;;0.70;0.70;;;;;;;-12.77;76.76;100807.94;5106140;28;20039;-62
2024/01/06 04:51:41;;;;;;;0.80;0.80;;;;;;;-12.64;76.88;100828.34;5106144;28;20024;-62
2024/01/06 04:54:06;;;;;;;0.80;0.80;;;;;;;-12.61;76.78;100835.22;5106098;28;20109;-62
2024/01/06 04:56:31;;;;;;;1.10;1.10;;;;;;;-12.62;76.84;100835.97;5106091;28;20024;-62
2024/01/06 04:58:57;;;;;;;0.70;0.70;;;;;;;-12.60;76.86;100832.88;5106035;28;20023;-61
2024/01/06 05:01:24;;;;;;;0.70;0.70;;;;;;;-12.59;76.88;100827.13;5105880;28;20054;-62
2024/01/06 05:03:49;;;;;;;0.90;0.90;;;;;;;-12.73;77.05;100809.97;5104857;28;20028;-61
2024/01/06 05:06:14;;;;;;;4.22;1.33;;;;;;;-12.54;76.90;100834.16;5104595;28;20035;-61
2024/01/06 05:08:44;;;;;;;0.80;0.80;;;;;;;-12.49;77.00;100848.84;5104545;28;20039;-61
2024/01/06 05:11:10;;;;;;;1.17;1.17;;;;;;;-12.50;77.09;100847.09;5104476;28;20032;-61
2024/01/06 05:13:35;;;;;;;0.70;0.70;;;;;;;-12.48;76.83;100847.25;5105659;28;20031;-61
2024/01/06 05:16:00;;;;;;;1.80;1.70;;;;;;;-12.48;76.70;100847.25;5105889;28;20361;-61
2024/01/06 05:18:26;;;;;;;0.80;0.80;;;;;;;-12.53;77.08;100839.31;5105794;28;20031;-61
2024/01/06 05:20:51;;;;;;;0.70;0.70;;;;;;;-12.54;76.81;100850.06;5105735;28;20020;-62
2024/01/06 05:23:16;;;;;;;0.80;0.80;;;;;;;-12.51;76.81;100852.84;5105611;28;20042;-63
2024/01/06 05:25:42;;;;;;;1.45;1.45;;;;;;;-12.51;76.65;100861.97;5105651;28;20104;-61
2024/01/06 05:28:07;;;;;;;0.70;0.70;;;;;;;-12.57;76.79;100847.28;5104592;28;20050;-62
2024/01/06 05:30:32;;;;;;;2.55;2.45;;;;;;;-12.54;76.59;100852.56;5105531;28;20024;-63
2024/01/06 05:32:58;;;;;;;1.02;1.02;;;;;;;-12.57;76.67;100853.16;5105409;28;20032;-62
2024/01/06 05:35:23;;;;;;;0.70;0.70;;;;;;;-12.58;76.71;100863.03;5105411;28;20031;-62
2024/01/06 05:37:48;;;;;;;1.80;1.70;;;;;;;-12.62;76.72;100866.00;5105517;28;20038;-62
2024/01/06 05:40:14;;;;;;;0.90;0.90;;;;;;;-12.61;76.71;100881.16;5103850;28;20058;-61
2024/01/06 05:42:40;;;;;;;0.60;0.60;;;;;;;-12.61;76.78;100877.75;5105155;28;20028;-61
2024/01/06 05:45:05;;;;;;;0.80;0.80;;;;;;;-12.65;76.77;100878.22;5104168;28;20028;-63
2024/01/06 05:47:31;;;;;;;0.70;0.70;;;;;;;-12.64;76.92;100882.47;5105342;28;20157;-61
2024/01/06 05:49:56;;;;;;;0.70;0.70;;;;;;;-12.65;76.74;100879.06;5103893;28;20024;-61
2024/01/06 05:52:21;;;;;;;0.80;0.80;;;;;;;-12.70;76.72;100878.66;5105397;28;20024;-61
2024/01/06 05:54:46;;;;;;;0.60;0.60;;;;;;;-12.65;76.78;100894.09;5105366;28;20031;-62
2024/01/06 05:57:12;;;;;;;2.25;2.15;;;;;;;-12.64;76.95;100888.38;5103862;28;20028;-62
2024/01/06 05:59:37;;;;;;;0.75;0.75;;;;;;;-12.68;76.78;100881.28;5105207;28;20072;-62
2024/01/06 06:02:03;;;;;;;0.80;0.80;;;;;;;-12.65;76.80;100889.09;5103899;28;20483;-63
2024/01/06 06:04:28;;;;;;;0.80;0.80;;;;;;;-12.67;77.02;100894.69;5104033;28;20139;-62
2024/01/06 06:06:54;;;;;;;0.70;0.70;;;;;;;-12.58;76.85;100913.06;5105131;28;20031;-61
2024/01/06 06:09:20;;;;;;;0.80;0.80;;;;;;;-12.55;76.79;100919.97;5105076;28;20341;-61
2024/01/06 06:11:46;;;;;;;0.73;0.73;;;;;;;-12.53;76.78;100926.88;5104858;28;20575;-62
2024/01/06 06:14:12;;;;;;;0.70;0.70;;;;;;;-12.56;76.71;100914.09;5103853;28;20084;-61
2024/01/06 06:16:38;;;;;;;0.77;0.77;;;;;;;-12.56;76.85;100924.09;5104937;28;20051;-61
2024/01/06 06:19:03;;;;;;;0.80;0.80;;;;;;;-12.58;76.78;100925.56;5105186;28;20020;-61
2024/01/06 06:21:28;;;;;;;0.70;0.70;;;;;;;-12.60;76.90;100924.56;5105009;28;20032;-62
2024/01/06 06:23:54;;;;;;;0.70;0.70;;;;;;;-12.59;76.72;100936.31;5103750;28;20020;-62
2024/01/06 06:26:19;;;;;;;0.70;0.70;;;;;;;-12.63;76.65;100929.25;5103399;28;20163;-62
2024/01/06 06:28:44;;;;;;;0.70;0.70;;;;;;;-12.59;76.83;100943.81;5104776;28;20055;-62
2024/01/06 06:31:10;;;;;;;0.80;0.80;;;;;;;-12.59;76.78;100946.31;5104855;28;20028;-61
2024/01/06 06:33:35;;;;;;;0.60;0.60;;;;;;;-12.61;76.65;100950.28;5105190;28;20048;-62
2024/01/06 06:36:01;;;;;;;4.03;3.65;;;;;;;-12.61;76.61;100947.78;5104848;28;20020;-62
2024/01/06 06:38:27;;;;;;;0.70;0.70;;;;;;;-12.61;76.74;100950.28;5105281;28;20024;-61
2024/01/06 06:40:52;;;;;;;0.70;0.70;;;;;;;-12.66;76.81;100944.88;5108734;28;20020;-62
2024/01/06 06:43:18;;;;;;;0.80;0.80;;;;;;;-12.81;76.69;100921.81;5108477;28;20027;-62
2024/01/06 06:45:43;;;;;;;0.70;0.70;;;;;;;-12.65;76.71;100955.75;5108824;28;20031;-62
2024/01/06 06:48:09;;;;;;;0.73;0.73;;;;;;;-12.63;76.78;100961.75;5108713;28;20024;-62
2024/01/06 06:50:34;;;;;;;0.70;0.70;;;;;;;-12.66;76.79;100964.88;5108397;28;20053;-61
2024/01/06 06:53:00;;;;;;;0.70;0.70;;;;;;;-12.61;76.59;100980.31;5108522;28;20034;-62
2024/01/06 06:55:27;;;;;;;0.80;0.80;;;;;;;-12.65;76.74;100980.78;5108500;28;20027;-60
2024/01/06 06:57:52;;;;;;;0.77;0.77;;;;;;;-12.94;76.65;100944.78;5108070;28;20031;-62
2024/01/06 07:00:18;;;;;;;0.70;0.70;;;;;;;-12.64;76.63;100990.03;5108346;28;20020;-62
2024/01/06 07:02:43;;;;;;;0.70;0.70;;;;;;;-12.65;76.66;100993.28;5108395;28;20141;-63
2024/01/06 07:05:09;;;;;;;0.80;0.80;;;;;;;-12.68;76.61;100991.34;5108327;28;20060;-62
2024/01/06 07:07:34;;;;;;;0.70;0.70;;;;;;;-12.71;76.68;100993.56;5108194;28;20451;-61
2024/01/06 07:10:04;;;;;;;0.77;0.77;;;;;;;-12.68;76.61;101005.50;5107771;28;20055;-61
2024/01/06 07:12:30;;;;;;;0.90;0.90;;;;;;;-12.68;76.62;101010.50;5108208;28;20032;-62
2024/01/06 07:14:55;;;;;;;0.80;0.80;;;;;;;-12.72;76.52;101006.81;5103039;28;20162;-61
2024/01/06 07:17:21;;;;;;;0.70;0.70;;;;;;;-12.80;76.59;101003.59;5087814;28;20020;-62
2024/01/06 07:19:46;;;;;;;0.80;0.80;;;;;;;-12.76;76.59;101010.63;5087692;28;20162;-62
2024/01/06 07:22:11;;;;;;;0.80;0.80;;;;;;;-12.78;76.48;101002.13;5087600;28;20050;-62
2024/01/06 07:24:37;;;;;;;0.98;0.98;;;;;;;-12.71;76.79;101021.97;5103231;28;20059;-60
2024/01/06 07:27:03;;;;;;;2.45;2.35;;;;;;;-12.72;76.66;101016.81;5087251;28;20032;-62
2024/01/06 07:29:28;;;;;;;1.17;1.17;;;;;;;-12.65;76.73;101023.28;5087410;28;20024;-62
2024/01/06 07:31:54;;;;;;;0.80;0.80;;;;;;;-12.67;76.61;101027.25;5087530;28;20109;-62
2024/01/06 07:34:19;;;;;;;0.60;0.60;;;;;;;-12.64;76.77;101030.94;5087251;28;20035;-62
2024/01/06 07:36:44;;;;;;;0.80;0.80;;;;;;;-12.64;76.71;101028.44;5087369;28;20033;-62
2024/01/06 07:39:10;;;;;;;2.10;1.92;;;;;;;-12.62;76.67;101036.09;5086847;28;20467;-62
2024/01/06 07:41:35;;;;;;;0.70;0.70;;;;;;;-12.59;76.73;101038.88;5087144;28;20032;-62
2024/01/06 07:44:02;;;;;;;0.60;0.60;;;;;;;-12.60;76.74;101042.13;5087089;28;20040;-63
2024/01/06 07:46:28;;;;;;;1.38;0.90;;;;;;;-12.59;76.78;101046.41;5087162;28;20020;-63
2024/01/06 07:48:54;;;;;;;0.70;0.70;;;;;;;-12.58;76.58;101055.66;5102602;28;20032;-64
2024/01/06 07:51:19;;;;;;;0.90;0.90;;;;;;;-12.61;76.59;101065.38;5085969;28;20590;-63
2024/01/06 07:53:44;;;;;;;0.80;0.80;;;;;;;-12.64;76.65;101065.06;5087017;28;20411;-61
2024/01/06 07:56:10;;;;;;;1.30;1.10;;;;;;;-12.67;76.64;101072.28;5087015;28;20048;-62
2024/01/06 07:58:35;;;;;;;0.80;0.80;;;;;;;-12.67;76.51;101079.78;5086735;28;20016;-62
2024/01/06 08:01:01;;;;;;;0.80;0.80;;;;;;;-12.70;76.60;101083.75;5086811;28;20025;-61
2024/01/06 08:03:26;;;;;;;0.70;0.70;;;;;;;-12.68;76.94;101090.53;5086801;28;20020;-63
2024/01/06 08:05:52;;;;;;;0.80;0.80;;;;;;;-12.70;76.70;101088.75;5086840;28;20511;-63
2024/01/06 08:08:18;;;;;;;0.75;0.75;;;;;;;-12.72;76.58;101087.75;5102394;28;20021;-64
2024/01/06 08:10:44;;;;;;;0.75;0.75;;;;;;;-12.74;76.59;101093.31;5086587;28;20024;-64
2024/01/06 08:13:09;;;;;;;0.80;0.80;;;;;;;-12.66;76.85;101099.94;5102104;28;20056;-64
2024/01/06 08:15:35;;;;;;;0.60;0.60;;;;;;;-12.51;77.28;101098.03;5086545;28;20468;-63
2024/01/06 08:18:00;;;;;;;0.80;0.80;;;;;;;-12.09;77.54;101101.09;5086591;28;20085;-64
2024/01/06 08:20:25;;;;;;;1.13;1.08;;;;;;;-11.77;77.04;101102.31;5086617;28;20472;-63
2024/01/06 08:22:51;;;;;;;0.80;0.80;;;;;;;-11.63;76.43;101096.06;5086227;28;20040;-64
2024/01/06 08:25:17;;;;;;;2.83;2.55;;;;;;;-11.55;75.92;101109.28;5086554;28;20418;-63
2024/01/06 08:27:43;;;;;;;1.17;1.17;;;;;;;-11.47;75.92;101111.75;5101834;28;20021;-64
2024/01/06 08:30:09;;;;;;;0.80;0.80;;;;;;;-11.42;75.80;101114.66;5086318;28;20060;-64
2024/01/06 08:32:34;;;;;;;0.88;0.88;;;;;;;-11.40;75.60;101118.22;5086472;28;20062;-64
2024/01/06 08:34:59;;;;;;;1.60;1.50;;;;;;;-11.37;75.49;101110.97;5086067;28;20028;-63
2024/01/06 08:37:25;;;;;;;1.60;1.50;;;;;;;-11.19;75.57;101125.91;5086088;28;20031;-63
2024/01/06 08:39:50;;;;;;;0.80;0.80;;;;;;;-10.99;75.39;101127.72;5086125;28;20108;-64
2024/01/06 08:42:16;;;;;;;0.93;0.93;;;;;;;-10.87;75.22;101119.53;5085966;28;20028;-65
2024/01/06 08:44:41;;;;;;;0.70;0.70;;;;;;;-10.80;74.88;101124.38;5086156;28;20028;-64
2024/01/06 08:47:09;;;;;;;0.82;0.82;;;;;;;-10.85;74.88;101121.47;5085983;28;20055;-66
2024/01/06 08:49:34;;;;;;;0.70;0.70;;;;;;;-10.90;74.88;101124.28;5085796;28;20056;-66
2024/01/06 08:52:00;;;;;;;0.70;0.70;;;;;;;-10.88;74.84;101127.81;5101219;28;20051;-62
2024/01/06 08:54:25;;;;;;;0.60;0.60;;;;;;;-10.76;75.08;101130.53;5101644;28;20054;-62
2024/01/06 08:56:50;;;;;;;0.95;0.95;;;;;;;-10.65;75.65;101127.34;5086124;28;20033;-63
2024/01/06 08:59:16;;;;;;;0.70;0.70;;;;;;;-10.41;75.34;101141.94;5085617;28;20078;-64
2024/01/06 09:01:42;;;;;;;0.70;0.70;;;;;;;-10.23;75.34;101138.50;5085986;28;20548;-61
2024/01/06 09:04:07;;;;;;;1.00;1.00;;;;;;;-10.02;75.16;101138.63;5101467;28;20070;-62
2024/01/06 09:06:32;;;;;;;46.33;3.03;;;;;;;-9.95;75.15;101132.47;5101145;28;20044;-62
2024/01/06 09:08:58;;;;;;;0.70;0.70;;;;;;;-9.85;75.50;101137.56;5085805;28;20024;-62
2024/01/06 09:11:23;;;;;;;1.10;1.10;;;;;;;-9.58;75.81;101135.63;5085497;28;20534;-64
2024/01/06 09:13:49;;;;;;;0.60;0.60;;;;;;;-9.21;76.08;101150.44;5085417;28;20028;-63
2024/01/06 09:16:14;;;;;;;0.88;0.85;;;;;;;-8.84;76.24;101152.59;5085680;28;20031;-64
2024/01/06 09:18:39;;;;;;;0.70;0.70;;;;;;;-8.28;75.49;101151.13;5085495;28;20102;-63
2024/01/06 09:21:05;;;;;;;0.70;0.70;;;;;;;-7.80;74.06;101151.47;5085357;28;20185;-62
2024/01/06 09:23:31;;;;;;;1.00;1.00;;;;;;;-7.57;72.62;101147.31;5085331;28;20104;-62
2024/01/06 09:25:57;;;;;;;16.52;1.75;;;;;;;-7.40;71.54;101160.38;5100881;28;20043;-64
2024/01/06 09:28:23;;;;;;;0.70;0.70;;;;;;;-7.42;70.46;101155.19;5085160;28;20020;-63
2024/01/06 09:30:52;;;;;;;0.90;0.90;;;;;;;-7.47;70.57;101159.00;5085181;28;20045;-63
2024/01/06 09:33:17;;;;;;;0.90;0.90;;;;;;;-7.43;70.87;101158.50;5084892;28;20040;-64
2024/01/06 09:35:44;;;;;;;0.70;0.70;;;;;;;-7.59;70.69;101147.19;5085065;28;20388;-65
2024/01/06 09:38:10;;;;;;;0.82;0.82;;;;;;;-7.84;70.66;101164.59;5085172;28;20016;-64
2024/01/06 09:40:43;;;;;;;2.75;2.55;;;;;;;-8.22;70.79;101180.94;5085237;28;20047;-63
2024/01/06 09:43:09;;;;;;;1.42;1.40;;;;;;;-8.59;71.32;101172.22;5084720;28;20036;-63
2024/01/06 09:45:34;;;;;;;0.93;0.93;;;;;;;-8.90;71.39;101178.91;5084786;28;20054;-63
2024/01/06 09:48:09;;;;;;;1.33;1.23;;;;;;;-9.09;71.07;101179.88;5085114;28;20021;-63
2024/01/06 09:50:34;;;;;;;7.30;1.67;;;;;;;-9.40;71.18;101170.63;5084750;28;20028;-64
2024/01/06 09:53:05;;;;;;;0.80;0.80;;;;;;;-9.25;72.23;101183.59;5085167;28;20017;-62
2024/01/06 09:55:31;;;;;;;0.95;0.95;;;;;;;-8.99;72.43;101182.41;5085042;28;20032;-62
2024/01/06 09:57:56;;;;;;;0.70;0.70;;;;;;;-8.49;73.07;101186.41;5084724;28;20102;-62
2024/01/06 10:00:21;;;;;;;0.73;0.73;;;;;;;-8.03;72.72;101183.31;5100374;28;20021;-63
2024/01/06 10:02:51;;;;;;;1.17;1.17;;;;;;;-7.60;71.15;101195.00;5085064;28;20166;-62
2024/01/06 10:05:17;;;;;;;0.70;0.70;;;;;;;-7.14;70.29;101200.19;5084888;28;20028;-63
2024/01/06 10:07:44;;;;;;;0.80;0.80;;;;;;;-6.98;68.69;101197.19;5084698;28;20035;-64
2024/01/06 10:10:10;;;;;;;0.70;0.70;;;;;;;-6.87;68.44;101195.47;5084670;28;20065;-64
2024/01/06 10:12:39;;;;;;;0.82;0.82;;;;;;;-6.79;68.26;101205.28;5084611;28;20027;-63
2024/01/06 10:15:06;;;;;;;0.80;0.80;;;;;;;-6.76;68.37;101198.84;5103722;28;20162;-62
2024/01/06 10:17:32;;;;;;;0.70;0.70;;;;;;;-6.63;68.32;101209.84;5088682;28;20039;-61
2024/01/06 10:19:57;;;;;;;0.70;0.70;;;;;;;-6.57;67.88;101211.94;5089010;28;20020;-62
2024/01/06 10:22:23;;;;;;;0.60;0.60;;;;;;;-6.90;67.52;101201.97;5104433;28;20046;-63
2024/01/06 10:24:48;;;;;;;0.70;0.70;;;;;;;-7.14;67.78;101211.97;5088870;28;20022;-62
2024/01/06 10:27:13;;;;;;;2.83;2.38;;;;;;;-7.41;68.05;101216.63;5088364;28;20036;-62
2024/01/06 10:29:39;;;;;;;0.93;0.93;;;;;;;-7.61;68.46;101228.56;5088622;28;20020;-63
2024/01/06 10:32:04;;;;;;;0.80;0.80;;;;;;;-7.93;68.50;101224.38;5088477;28;20020;-63
2024/01/06 10:34:32;;;;;;;1.05;1.00;;;;;;;-8.19;68.98;101224.03;5088345;28;20032;-65
2024/01/06 10:36:57;;;;;;;0.80;0.80;;;;;;;-8.29;69.83;101224.06;5088432;28;20020;-62
2024/01/06 10:39:24;;;;;;;0.82;0.82;;;;;;;-8.35;70.01;101225.31;5088141;28;20051;-62
2024/01/06 10:41:51;;;;;;;0.80;0.80;;;;;;;-8.23;70.26;101227.06;5088231;28;20028;-63
2024/01/06 10:44:17;;;;;;;0.80;0.80;;;;;;;-8.20;69.86;101232.38;5103766;28;20028;-62
2024/01/06 10:46:44;;;;;;;1.20;1.10;;;;;;;-8.42;69.46;101223.06;5088216;28;20025;-62
2024/01/06 10:49:10;;;;;;;1.10;1.10;;;;;;;-8.65;69.41;101231.25;5103680;28;20021;-63
2024/01/06 10:51:40;;;;;;;0.77;0.77;;;;;;;-8.84;69.68;101242.31;5087803;28;20020;-61
2024/01/06 10:54:05;;;;;;;0.70;0.70;;;;;;;-8.91;70.02;101235.03;5103843;28;20059;-63
2024/01/06 10:56:37;;;;;;;0.70;0.70;;;;;;;-8.90;70.69;101237.66;5088172;28;20028;-62
2024/01/06 10:59:03;;;;;;;;;;;;;;;-8.81;71.00;101241.69;5088303;28;20027;-64
2024/01/06 11:01:29;;;;;;;1.10;1.00;;;;;;;-8.78;70.95;101226.84;5088130;28;20078;-62
2024/01/06 11:03:55;;;;;;;0.82;0.82;;;;;;;-8.68;71.15;101241.06;5087816;28;20031;-62
2024/01/06 11:06:21;;;;;;;0.80;0.80;;;;;;;-8.68;71.00;101236.03;5103398;28;20025;-62
2024/01/06 11:09:16;;;;;;;0.80;0.80;;;;;;;-8.53;70.99;101239.78;5087725;28;20071;-64
2024/01/06 11:11:42;;;;;;;0.80;0.80;;;;;;;-8.39;71.22;101232.50;5087806;28;20370;-62